Time;durP1;ratioP1;P1;durP2;ratioP2;P2;SDS_P1;SDS_P2;PMS_P1;PMS_P2;Temp;Humidity;BMP_temperature;BMP_pressure;BME280_temperature;BME280_humidity;BME280_pressure;Samples;Min_cycle;Max_cycle;Signal;HPM_P1;HPM_P2
2023/09/29 00:02:13;;;;;;;8.18;5.30;;;;;;;;;;5104102;28;20802;-63
2023/09/29 00:04:40;;;;;;;9.05;5.32;;;;;;;;;;5102847;28;20410;-62
2023/09/29 00:07:07;;;;;;;9.10;5.57;;;;;;;;;;5104667;28;20407;-62
2023/09/29 00:09:34;;;;;;;7.77;5.20;;;;;;;;;;5105227;28;20416;-62
2023/09/29 00:12:01;;;;;;;8.80;5.53;;;;;;;;;;5102826;28;20428;-62
2023/09/29 00:14:29;;;;;;;9.40;5.50;;;;;;;;;;5102940;28;20487;-63
2023/09/29 00:16:56;;;;;;;8.00;5.15;;;;;;;;;;5105564;28;20408;-62
2023/09/29 00:19:24;;;;;;;8.13;4.93;;;;;;;;;;5100061;28;20410;-62
2023/09/29 00:21:51;;;;;;;7.18;5.25;;;;;;;;;;5102526;28;20813;-62
2023/09/29 00:24:18;;;;;;;7.05;5.10;;;;;;;;;;5105447;28;20476;-63
2023/09/29 00:26:45;;;;;;;8.90;5.50;;;;;;;;;;5101058;28;20414;-63
2023/09/29 00:29:12;;;;;;;8.13;4.85;;;;;;;;;;5105491;28;20757;-62
2023/09/29 00:31:39;;;;;;;8.10;4.70;;;;;;;;;;5103482;28;20469;-62
2023/09/29 00:34:06;;;;;;;7.53;4.63;;;;;;;;;;5104622;28;20409;-62
2023/09/29 00:36:34;;;;;;;6.85;4.80;;;;;;;;;;5102878;28;20900;-62
2023/09/29 00:39:02;;;;;;;8.75;4.55;;;;;;;;;;5102079;28;20455;-62
2023/09/29 00:41:29;;;;;;;9.40;4.82;;;;;;;;;;5092801;28;20459;-63
2023/09/29 00:43:56;;;;;;;6.72;5.10;;;;;;;;;;5093459;28;20951;-62
2023/09/29 00:46:25;;;;;;;8.60;5.28;;;;;;;;;;5093323;28;20406;-63
2023/09/29 00:48:52;;;;;;;7.63;5.20;;;;;;;;;;5093641;28;20946;-63
2023/09/29 00:51:20;;;;;;;7.35;4.60;;;;;;;;;;5092555;28;20945;-62
2023/09/29 00:53:49;;;;;;;10.63;4.93;;;;;;;;;;5101212;28;20412;-63
2023/09/29 00:56:16;;;;;;;7.65;5.00;;;;;;;;;;5099629;28;20400;-62
2023/09/29 00:58:43;;;;;;;10.45;5.20;;;;;;;;;;5102050;28;20410;-61
2023/09/29 01:01:12;;;;;;;6.97;4.82;;;;;;;;;;5105890;28;20397;-63
2023/09/29 01:03:39;;;;;;;7.82;4.60;;;;;;;;;;5105343;28;20410;-62
2023/09/29 01:06:08;;;;;;;9.43;5.30;;;;;;;;;;5101249;28;20460;-61
2023/09/29 01:08:35;;;;;;;9.73;5.32;;;;;;;;;;5101228;28;20409;-62
2023/09/29 01:11:05;;;;;;;8.57;4.88;;;;;;;;;;5101253;28;20563;-62
2023/09/29 01:13:32;;;;;;;7.10;4.90;;;;;;;;;;5104282;28;20468;-62
2023/09/29 01:16:00;;;;;;;8.77;4.80;;;;;;;;;;5101601;28;20413;-62
2023/09/29 01:18:28;;;;;;;7.57;5.20;;;;;;;;;;5101215;28;20842;-62
2023/09/29 01:20:55;;;;;;;8.77;4.90;;;;;;;;;;5092102;28;20409;-62
2023/09/29 01:23:24;;;;;;;7.28;4.57;;;;;;;;;;5094793;28;20423;-63
2023/09/29 01:25:52;;;;;;;7.22;4.95;;;;;;;;;;5101464;28;20414;-62
2023/09/29 01:28:19;;;;;;;9.43;5.10;;;;;;;;;;5100841;28;20895;-61
2023/09/29 01:30:47;;;;;;;8.32;4.57;;;;;;;;;;5100941;28;20406;-62
2023/09/29 01:33:14;;;;;;;8.60;4.57;;;;;;;;;;5102295;28;20495;-61
2023/09/29 01:35:43;;;;;;;8.02;4.55;;;;;;;;;;5103035;28;20762;-62
2023/09/29 01:38:10;;;;;;;7.15;4.60;;;;;;;;;;5101501;28;20410;-62
2023/09/29 01:40:37;;;;;;;5.50;3.63;;;;;;;;;;5100843;28;20450;-62
2023/09/29 01:43:06;;;;;;;8.25;4.28;;;;;;;;;;5103256;28;20400;-62
2023/09/29 01:45:34;;;;;;;6.47;4.20;;;;;;;;;;5102206;28;20841;-62
2023/09/29 01:48:01;;;;;;;6.55;4.15;;;;;;;;;;5100566;28;20445;-62
2023/09/29 01:50:28;;;;;;;7.20;4.23;;;;;;;;;;5102038;28;20752;-61
2023/09/29 01:52:55;;;;;;;7.43;4.00;;;;;;;;;;5103173;28;20426;-62
2023/09/29 01:55:24;;;;;;;6.45;4.13;;;;;;;;;;5102517;28;20404;-62
2023/09/29 01:57:52;;;;;;;6.35;4.28;;;;;;;;;;5102065;28;20441;-62
2023/09/29 02:00:22;;;;;;;7.60;4.72;;;;;;;;;;5100679;28;20414;-62
2023/09/29 02:02:49;;;;;;;7.90;4.45;;;;;;;;;;5099918;28;20413;-60
2023/09/29 02:05:16;;;;;;;8.73;4.20;;;;;;;;;;5103922;28;20408;-62
2023/09/29 02:07:43;;;;;;;7.63;4.32;;;;;;;;;;5101614;28;20396;-62
2023/09/29 02:10:11;;;;;;;7.32;4.00;;;;;;;;;;5102762;28;20755;-62
2023/09/29 02:12:46;;;;;;;7.20;4.00;;;;;;;;;;5101051;28;20769;-63
2023/09/29 02:15:14;;;;;;;5.63;3.38;;;;;;;;;;5100212;28;21064;-63
2023/09/29 02:17:43;;;;;;;6.17;3.93;;;;;;;;;;5104002;28;20469;-62
2023/09/29 02:20:14;;;;;;;6.75;3.35;;;;;;;;;;5102742;28;20437;-62
2023/09/29 02:22:41;;;;;;;5.20;3.50;;;;;;;;;;5101589;28;20402;-62
2023/09/29 02:25:10;;;;;;;6.40;3.83;;;;;;;;;;5103330;28;20407;-62
2023/09/29 02:27:37;;;;;;;6.10;3.42;;;;;;;;;;5096742;28;20415;-62
2023/09/29 02:30:05;;;;;;;5.72;3.78;;;;;;;;;;5102354;28;20450;-63
2023/09/29 02:32:34;;;;;;;8.32;3.92;;;;;;;;;;5100290;28;20989;-62
2023/09/29 02:35:02;;;;;;;4.85;3.42;;;;;;;;;;5100059;28;20776;-62
2023/09/29 02:37:30;;;;;;;6.65;3.40;;;;;;;;;;5099997;28;20852;-62
2023/09/29 02:39:57;;;;;;;6.80;3.30;;;;;;;;;;5100286;28;20416;-62
2023/09/29 02:42:24;;;;;;;6.90;3.72;;;;;;;;;;5102149;28;20408;-62
2023/09/29 02:44:51;;;;;;;4.93;3.23;;;;;;;;;;5100834;28;20450;-62
2023/09/29 02:47:18;;;;;;;6.70;3.58;;;;;;;;;;5099664;28;20949;-62
2023/09/29 02:49:45;;;;;;;5.73;3.23;;;;;;;;;;5102030;28;20409;-63
2023/09/29 02:52:13;;;;;;;5.10;3.30;;;;;;;;;;5101608;28;20469;-62
2023/09/29 02:54:40;;;;;;;6.57;3.40;;;;;;;;;;5100590;28;20436;-62
2023/09/29 02:57:07;;;;;;;7.70;3.40;;;;;;;;;;5095891;28;20405;-62
2023/09/29 02:59:34;;;;;;;6.43;3.47;;;;;;;;;;5099591;28;20485;-62
2023/09/29 03:02:03;;;;;;;5.03;3.50;;;;;;;;;;5101312;28;20401;-62
2023/09/29 03:04:30;;;;;;;6.50;3.20;;;;;;;;;;5101889;28;20404;-63
2023/09/29 03:06:58;;;;;;;8.68;3.88;;;;;;;;;;5099808;28;20413;-62
2023/09/29 03:09:29;;;;;;;5.63;3.70;;;;;;;;;;5099804;28;20868;-62
2023/09/29 03:11:56;;;;;;;5.55;3.70;;;;;;;;;;5099816;28;20426;-62
2023/09/29 03:14:22;;;;;;;5.43;3.70;;;;;;;;;;5102484;28;20410;-63
2023/09/29 03:16:49;;;;;;;6.35;3.58;;;;;;;;;;5106279;28;20461;-62
2023/09/29 03:19:17;;;;;;;5.85;3.45;;;;;;;;;;5104631;28;20454;-62
2023/09/29 03:21:44;;;;;;;6.40;3.90;;;;;;;;;;5103563;28;20416;-63
2023/09/29 03:24:11;;;;;;;6.18;3.90;;;;;;;;;;5106836;28;20883;-62
2023/09/29 03:26:40;;;;;;;6.75;3.58;;;;;;;;;;5095542;28;20432;-62
2023/09/29 03:29:07;;;;;;;4.88;3.40;;;;;;;;;;5105904;28;20412;-62
2023/09/29 03:31:34;;;;;;;9.40;3.55;;;;;;;;;;5104839;28;20409;-62
2023/09/29 03:34:02;;;;;;;4.97;3.67;;;;;;;;;;5103024;28;20595;-62
2023/09/29 03:36:30;;;;;;;6.75;3.42;;;;;;;;;;5104752;28;20917;-62
2023/09/29 03:38:59;;;;;;;6.38;3.58;;;;;;;;;;5106007;28;20758;-63
2023/09/29 03:41:26;;;;;;;4.25;3.80;;;;;;;;;;5103770;28;20486;-63
2023/09/29 03:43:55;;;;;;;5.05;3.53;;;;;;;;;;5103563;28;20402;-63
2023/09/29 03:46:22;;;;;;;6.68;3.17;;;;;;;;;;5102902;28;20802;-62
2023/09/29 03:48:49;;;;;;;5.25;3.83;;;;;;;;;;5103902;28;20448;-63
2023/09/29 03:51:23;;;;;;;6.68;3.70;;;;;;;;;;5106105;28;20801;-62
2023/09/29 03:53:50;;;;;;;5.95;3.85;;;;;;;;;;5108803;28;20508;-62
2023/09/29 03:56:17;;;;;;;6.30;3.93;;;;;;;;;;5101032;28;20407;-63
2023/09/29 03:58:44;;;;;;;7.13;4.00;;;;;;;;;;5104331;28;20404;-63
2023/09/29 04:01:15;;;;;;;5.13;3.93;;;;;;;;;;5105534;28;20469;-63
2023/09/29 04:03:42;;;;;;;6.80;3.75;;;;;;;;;;5103846;28;20534;-63
2023/09/29 04:06:09;;;;;;;5.38;3.47;;;;;;;;;;5102536;28;20412;-63
2023/09/29 04:08:36;;;;;;;6.77;3.90;;;;;;;;;;5104750;28;20427;-63
2023/09/29 04:11:04;;;;;;;8.00;4.00;;;;;;;;;;5104581;28;20953;-62
2023/09/29 04:13:31;;;;;;;6.40;4.10;;;;;;;;;;5102208;28;20509;-62
2023/09/29 04:15:59;;;;;;;7.40;4.07;;;;;;;;;;5103153;28;20404;-62
2023/09/29 04:18:27;;;;;;;8.52;3.83;;;;;;;;;;5104796;28;20495;-62
2023/09/29 04:20:54;;;;;;;5.72;3.80;;;;;;;;;;5103302;28;20885;-62
2023/09/29 04:23:21;;;;;;;7.97;4.03;;;;;;;;;;5104687;28;20448;-62
2023/09/29 04:25:48;;;;;;;6.95;3.90;;;;;;;;;;5102289;28;20414;-62
2023/09/29 04:28:15;;;;;;;6.40;4.00;;;;;;;;;;5093242;28;20896;-62
2023/09/29 04:30:42;;;;;;;7.43;4.00;;;;;;;;;;5092968;28;20406;-62
2023/09/29 04:33:09;;;;;;;8.40;4.32;;;;;;;;;;5093274;28;20542;-62
2023/09/29 04:35:37;;;;;;;6.55;3.95;;;;;;;;;;5093018;28;20421;-62
2023/09/29 04:38:04;;;;;;;6.38;3.90;;;;;;;;;;5095113;28;20749;-62
2023/09/29 04:40:31;;;;;;;6.60;4.05;;;;;;;;;;5102254;28;20414;-62
2023/09/29 04:42:58;;;;;;;5.75;3.92;;;;;;;;;;5104999;28;20461;-62
2023/09/29 04:45:25;;;;;;;5.20;3.97;;;;;;;;;;5103065;28;20398;-62
2023/09/29 04:47:52;;;;;;;5.68;4.13;;;;;;;;;;5105271;28;20401;-62
2023/09/29 04:50:20;;;;;;;8.70;4.38;;;;;;;;;;5103743;28;20415;-62
2023/09/29 04:52:48;;;;;;;7.75;4.70;;;;;;;;;;5103784;28;20469;-62
2023/09/29 04:55:15;;;;;;;7.13;4.40;;;;;;;;;;5102508;28;20404;-63
2023/09/29 04:57:42;;;;;;;6.90;4.85;;;;;;;;;;5097509;28;20455;-62
2023/09/29 05:00:09;;;;;;;6.65;4.38;;;;;;;;;;5103629;28;20404;-62
2023/09/29 05:02:36;;;;;;;6.45;4.28;;;;;;;;;;5102824;28;20402;-63
2023/09/29 05:05:03;;;;;;;6.22;4.30;;;;;;;;;;5101337;28;20401;-62
2023/09/29 05:07:30;;;;;;;6.85;4.25;;;;;;;;;;5103480;28;20458;-62
2023/09/29 05:09:59;;;;;;;6.63;4.40;;;;;;;;;;5103382;28;20893;-62
2023/09/29 05:12:28;;;;;;;5.88;4.15;;;;;;;;;;5100861;28;20414;-62
2023/09/29 05:14:55;;;;;;;7.03;4.25;;;;;;;;;;5102087;28;20413;-63
2023/09/29 05:17:22;;;;;;;6.80;4.00;;;;;;;;;;5103822;28;20408;-62
2023/09/29 05:19:49;;;;;;;7.13;4.40;;;;;;;;;;5101992;28;20471;-62
2023/09/29 05:22:16;;;;;;;9.70;4.25;;;;;;;;;;5101073;28;20818;-62
2023/09/29 05:24:43;;;;;;;6.70;4.30;;;;;;;;;;5102062;28;20417;-62
2023/09/29 05:27:11;;;;;;;5.22;4.00;;;;;;;;;;5096539;28;20408;-62
2023/09/29 05:29:39;;;;;;;5.22;4.20;;;;;;;;;;5100762;28;20482;-62
2023/09/29 05:32:06;;;;;;;6.07;3.83;;;;;;;;;;5101637;28;20413;-62
2023/09/29 05:34:33;;;;;;;6.32;3.90;;;;;;;;;;5103000;28;20420;-62
2023/09/29 05:37:01;;;;;;;7.20;4.45;;;;;;;;;;5101358;28;20414;-62
2023/09/29 05:39:28;;;;;;;8.15;3.88;;;;;;;;;;5100277;28;20880;-62
2023/09/29 05:41:55;;;;;;;6.75;4.20;;;;;;;;;;5100833;28;20410;-62
2023/09/29 05:44:24;;;;;;;5.67;4.30;;;;;;;;;;5100824;28;21279;-62
2023/09/29 05:46:51;;;;;;;6.40;4.18;;;;;;;;;;5102926;28;20408;-62
2023/09/29 05:49:18;;;;;;;6.90;4.10;;;;;;;;;;5101590;28;20454;-62
2023/09/29 05:51:45;;;;;;;5.30;4.10;;;;;;;;;;5099817;28;20406;-62
2023/09/29 05:54:12;;;;;;;5.32;3.88;;;;;;;;;;5102735;28;21015;-62
2023/09/29 05:56:39;;;;;;;5.97;4.30;;;;;;;;;;5095005;28;20855;-62
2023/09/29 05:59:06;;;;;;;4.97;3.88;;;;;;;;;;5099494;28;20459;-62
2023/09/29 06:01:35;;;;;;;5.63;4.00;;;;;;;;;;5101408;28;20405;-62
2023/09/29 06:04:02;;;;;;;6.18;3.80;;;;;;;;;;5102439;28;20463;-62
2023/09/29 06:06:29;;;;;;;6.35;4.10;;;;;;;;;;5100790;28;20402;-62
2023/09/29 06:08:56;;;;;;;5.90;4.13;;;;;;;;;;5100032;28;20414;-62
2023/09/29 06:11:23;;;;;;;5.70;3.60;;;;;;;;;;5102224;28;20469;-62
2023/09/29 06:13:50;;;;;;;5.93;3.72;;;;;;;;;;5101734;28;20420;-62
2023/09/29 06:16:17;;;;;;;5.15;3.55;;;;;;;;;;5099855;28;20405;-62
2023/09/29 06:18:46;;;;;;;6.32;3.83;;;;;;;;;;5101498;28;20403;-62
2023/09/29 06:21:13;;;;;;;7.38;3.75;;;;;;;;;;5102442;28;20431;-62
2023/09/29 06:23:40;;;;;;;6.53;3.70;;;;;;;;;;5104057;28;20788;-62
2023/09/29 06:26:07;;;;;;;7.47;3.85;;;;;;;;;;5098346;28;20435;-62
2023/09/29 06:28:34;;;;;;;5.50;3.85;;;;;;;;;;5099782;28;20478;-68
2023/09/29 06:31:01;;;;;;;6.97;4.05;;;;;;;;;;5096984;27;20793;-62
2023/09/29 06:33:28;;;;;;;6.97;4.00;;;;;;;;;;5093050;28;20449;-62
2023/09/29 06:35:57;;;;;;;4.85;3.85;;;;;;;;;;5101658;28;20462;-62
2023/09/29 06:38:24;;;;;;;6.00;3.92;;;;;;;;;;5096560;28;20404;-62
2023/09/29 06:40:51;;;;;;;5.32;3.88;;;;;;;;;;5099301;28;20406;-62
2023/09/29 06:43:18;;;;;;;5.78;3.90;;;;;;;;;;5103384;28;20809;-62
2023/09/29 06:45:45;;;;;;;6.90;4.00;;;;;;;;;;5099184;28;20410;-62
2023/09/29 06:48:12;;;;;;;7.85;3.75;;;;;;;;;;5100019;28;20440;-62
2023/09/29 06:50:39;;;;;;;6.40;3.83;;;;;;;;;;5101871;28;20461;-62
2023/09/29 06:53:08;;;;;;;4.80;3.70;;;;;;;;;;5100192;28;20429;-64
2023/09/29 06:55:35;;;;;;;7.82;3.40;;;;;;;;;;5104874;28;20410;-64
2023/09/29 06:58:03;;;;;;;5.80;3.70;;;;;;;;;;5100942;28;20904;-61
2023/09/29 07:00:30;;;;;;;6.85;3.70;;;;;;;;;;5098048;28;20411;-59
2023/09/29 07:02:57;;;;;;;6.47;3.37;;;;;;;;;;5098958;28;20410;-60
2023/09/29 07:05:24;;;;;;;4.78;3.25;;;;;;;;;;5100236;28;20767;-61
2023/09/29 07:07:51;;;;;;;6.65;3.38;;;;;;;;;;5092083;28;20410;-61
2023/09/29 07:10:19;;;;;;;5.87;3.60;;;;;;;;;;5101161;28;20400;-61
2023/09/29 07:12:46;;;;;;;5.63;3.63;;;;;;;;;;5101317;28;20823;-60
2023/09/29 07:15:14;;;;;;;6.03;3.50;;;;;;;;;;5098887;28;20409;-60
2023/09/29 07:17:41;;;;;;;6.25;3.35;;;;;;;;;;5100707;28;20411;-60
2023/09/29 07:20:08;;;;;;;5.32;3.20;;;;;;;;;;5101555;28;20436;-62
2023/09/29 07:22:36;;;;;;;5.28;3.33;;;;;;;;;;5100403;28;20416;-62
2023/09/29 07:25:03;;;;;;;4.45;3.17;;;;;;;;;;5099905;28;20459;-62
2023/09/29 07:27:31;;;;;;;5.93;3.60;;;;;;;;;;5098697;28;20839;-62
2023/09/29 07:29:58;;;;;;;6.17;3.50;;;;;;;;;;5098023;28;20493;-62
2023/09/29 07:32:26;;;;;;;5.47;3.60;;;;;;;;;;5101957;28;20400;-62
2023/09/29 07:34:53;;;;;;;4.78;3.22;;;;;;;;;;5100430;28;20446;-62
2023/09/29 07:37:20;;;;;;;6.22;3.30;;;;;;;;;;5103269;28;20901;-60
2023/09/29 07:39:47;;;;;;;7.30;3.50;;;;;;;;;;5102805;28;20410;-62
2023/09/29 07:42:14;;;;;;;7.05;3.50;;;;;;;;;;5105637;28;20408;-62
2023/09/29 07:44:42;;;;;;;5.55;3.40;;;;;;;;;;5101261;28;20416;-62
2023/09/29 07:47:10;;;;;;;3.97;3.38;;;;;;;;;;5104757;28;20412;-62
2023/09/29 07:49:40;;;;;;;5.65;3.25;;;;;;;;;;5099203;28;20538;-61
2023/09/29 07:52:07;;;;;;;8.25;3.30;;;;;;;;;;5099718;28;20440;-61
2023/09/29 07:54:35;;;;;;;4.57;2.90;;;;;;;;;;5099291;28;20963;-62
2023/09/29 07:57:03;;;;;;;4.40;2.90;;;;;;;;;;5093354;28;20406;-61
2023/09/29 07:59:30;;;;;;;6.32;3.33;;;;;;;;;;5101033;28;20487;-62
2023/09/29 08:01:59;;;;;;;5.75;3.45;;;;;;;;;;5101664;28;20776;-62
2023/09/29 08:04:26;;;;;;;5.45;2.97;;;;;;;;;;5102668;28;20412;-62
2023/09/29 08:06:53;;;;;;;5.18;3.22;;;;;;;;;;5104694;28;20434;-62
2023/09/29 08:09:20;;;;;;;4.47;3.20;;;;;;;;;;5103013;28;20455;-61
2023/09/29 08:11:47;;;;;;;6.22;3.17;;;;;;;;;;5102257;28;20418;-61
2023/09/29 08:14:14;;;;;;;6.20;3.20;;;;;;;;;;5103918;28;20420;-61
2023/09/29 08:16:42;;;;;;;5.13;3.07;;;;;;;;;;5104506;28;20816;-64
2023/09/29 08:19:10;;;;;;;4.68;3.13;;;;;;;;;;5093035;28;20843;-64
2023/09/29 08:21:38;;;;;;;6.00;3.35;;;;;;;;;;5092997;28;20418;-63
2023/09/29 08:24:06;;;;;;;5.25;2.92;;;;;;;;;;5097037;28;20464;-64
2023/09/29 08:26:34;;;;;;;5.72;2.92;;;;;;;;;;5099348;28;20483;-64
2023/09/29 08:29:01;;;;;;;6.13;2.95;;;;;;;;;;5101250;28;20499;-63
2023/09/29 08:31:29;;;;;;;6.72;2.92;;;;;;;;;;5103144;28;20871;-63
2023/09/29 08:33:56;;;;;;;6.35;2.90;;;;;;;;;;5103978;28;20523;-63
2023/09/29 08:36:24;;;;;;;8.05;3.20;;;;;;;;;;5101525;28;20969;-61
2023/09/29 08:38:51;;;;;;;5.18;3.10;;;;;;;;;;5101971;28;20414;-62
2023/09/29 08:41:18;;;;;;;4.80;3.25;;;;;;;;;;5105530;28;20453;-62
2023/09/29 08:43:45;;;;;;;7.03;3.10;;;;;;;;;;5096974;28;20410;-62
2023/09/29 08:46:14;;;;;;;3.90;2.70;;;;;;;;;;5100265;28;20410;-62
2023/09/29 08:48:44;;;;;;;3.72;2.70;;;;;;;;;;5103150;28;20495;-62
2023/09/29 08:51:12;;;;;;;5.05;2.80;;;;;;;;;;5103462;28;20487;-62
2023/09/29 08:53:41;;;;;;;5.00;2.60;;;;;;;;;;5104921;28;20424;-62
2023/09/29 08:56:11;;;;;;;4.35;2.83;;;;;;;;;;5100967;28;20406;-64
2023/09/29 08:58:38;;;;;;;4.50;2.80;;;;;;;;;;5101606;28;20406;-64
2023/09/29 09:01:05;;;;;;;3.55;2.78;;;;;;;;;;5106024;28;20432;-64
2023/09/29 09:03:33;;;;;;;4.78;3.00;;;;;;;;;;5100435;28;20457;-63
2023/09/29 09:06:00;;;;;;;5.43;2.95;;;;;;;;;;5104100;28;20515;-63
2023/09/29 09:08:27;;;;;;;4.80;2.97;;;;;;;;;;5099868;28;20409;-65
2023/09/29 09:11:00;;;;;;;6.88;2.72;;;;;;;;;;5099938;28;20489;-64
2023/09/29 09:13:27;;;;;;;6.72;2.90;;;;;;;;;;5100347;28;20450;-63
2023/09/29 09:15:58;;;;;;;4.68;2.75;;;;;;;;;;5101842;28;20409;-63
2023/09/29 09:18:27;;;;;;;8.77;3.13;;;;;;;;;;5100562;28;20405;-63
2023/09/29 09:20:54;;;;;;;4.10;2.90;;;;;;;;;;5102240;28;20476;-63
2023/09/29 09:23:21;;;;;;;5.55;2.75;;;;;;;;;;5103338;28;20457;-63
2023/09/29 09:25:48;;;;;;;5.75;2.80;;;;;;;;;;5099321;28;20406;-63
2023/09/29 09:28:17;;;;;;;5.80;3.00;;;;;;;;;;5099613;28;20465;-63
2023/09/29 09:30:45;;;;;;;4.47;3.00;;;;;;;;;;5102345;28;20409;-63
2023/09/29 09:33:18;;;;;;;4.18;3.05;;;;;;;;;;5102133;28;20436;-63
2023/09/29 09:35:45;;;;;;;4.25;2.78;;;;;;;;;;5100418;28;20450;-63
2023/09/29 09:38:12;;;;;;;5.55;2.72;;;;;;;;;;5101110;28;20488;-63
2023/09/29 09:40:39;;;;;;;4.00;2.85;;;;;;;;;;5099400;28;20410;-63
2023/09/29 09:43:08;;;;;;;7.80;3.35;;;;;;;;;;5101413;28;20415;-62
2023/09/29 09:45:39;;;;;;;5.90;3.15;;;;;;;;;;5102505;28;20412;-61
2023/09/29 09:48:07;;;;;;;6.55;3.45;;;;;;;;;;5101957;28;20421;-63
2023/09/29 09:50:36;;;;;;;5.57;3.40;;;;;;;;;;5100150;28;20902;-63
2023/09/29 09:53:05;;;;;;;6.47;3.17;;;;;;;;;;5102232;28;20419;-67
2023/09/29 09:55:37;;;;;;;5.22;3.20;;;;;;;;;;5099627;28;20425;-66
2023/09/29 09:58:09;;;;;;;5.43;3.55;;;;;;;;;;5099420;28;20408;-66
2023/09/29 10:00:38;;;;;;;6.22;3.78;;;;;;;;;;5102690;28;20775;-65
2023/09/29 10:03:11;;;;;;;4.68;2.80;;;;;;;;;;5101295;28;20969;-65
2023/09/29 10:05:40;;;;;;;7.00;3.45;;;;;;;;;;5099663;28;20451;-65
2023/09/29 10:08:10;;;;;;;5.47;3.63;;;;;;;;;;5100057;28;20417;-65
2023/09/29 10:10:38;;;;;;;6.78;3.53;;;;;;;;;;5099513;28;20414;-65
2023/09/29 10:13:06;;;;;;;6.00;3.33;;;;;;;;;;5100601;28;20777;-65
2023/09/29 10:15:35;;;;;;;8.13;3.40;;;;;;;;;;5101919;28;20428;-65
2023/09/29 10:18:15;;;;;;;6.72;3.40;;;;;;;;;;5101365;28;20424;-65
2023/09/29 10:20:43;;;;;;;7.13;3.50;;;;;;;;;;5100215;28;20492;-65
2023/09/29 10:23:15;;;;;;;6.43;3.42;;;;;;;;;;5099558;28;20413;-65
2023/09/29 10:25:44;;;;;;;9.00;3.75;;;;;;;;;;5097911;28;20404;-65
2023/09/29 10:28:12;;;;;;;7.78;3.60;;;;;;;;;;5098993;28;20422;-67
2023/09/29 10:30:40;;;;;;;6.68;3.35;;;;;;;;;;5103194;28;20408;-64
2023/09/29 10:33:11;;;;;;;6.57;3.20;;;;;;;;;;5101743;28;20409;-64
2023/09/29 10:35:45;;;;;;;6.00;3.30;;;;;;;;;;5101590;28;20420;-65
2023/09/29 10:38:15;;;;;;;7.97;2.83;;;;;;;;;;5100806;28;20505;-65
2023/09/29 10:40:44;;;;;;;5.37;2.73;;;;;;;;;;5100053;28;20412;-65
2023/09/29 10:43:12;;;;;;;6.50;2.80;;;;;;;;;;5100420;28;20842;-70
2023/09/29 10:45:41;;;;;;;6.50;2.77;;;;;;;;;;5099923;28;21321;-64
2023/09/29 10:48:10;;;;;;;5.93;3.05;;;;;;;;;;5096909;28;21021;-65
2023/09/29 10:50:41;;;;;;;7.82;2.78;;;;;;;;;;5103793;28;20608;-65
2023/09/29 10:53:08;;;;;;;6.57;2.63;;;;;;;;;;5095026;28;20471;-65
2023/09/29 10:55:36;;;;;;;6.23;2.90;;;;;;;;;;5099247;28;20925;-65
2023/09/29 10:58:04;;;;;;;7.18;2.88;;;;;;;;;;5096409;28;20410;-65
2023/09/29 11:00:31;;;;;;;6.57;2.80;;;;;;;;;;5100645;28;20756;-65
2023/09/29 11:02:58;;;;;;;7.00;3.10;;;;;;;;;;5102424;28;20826;-64
2023/09/29 11:05:27;;;;;;;7.22;2.90;;;;;;;;;;5101865;28;20519;-66
2023/09/29 11:07:55;;;;;;;6.87;3.10;;;;;;;;;;5100847;28;20404;-65
2023/09/29 11:10:22;;;;;;;7.50;3.15;;;;;;;;;;5098959;28;20470;-64
2023/09/29 11:12:49;;;;;;;7.78;3.08;;;;;;;;;;5100488;28;20800;-65
2023/09/29 11:15:17;;;;;;;6.90;3.40;;;;;;;;;;5101714;28;20556;-64
2023/09/29 11:17:48;;;;;;;7.15;3.00;;;;;;;;;;5099817;28;20409;-65
2023/09/29 11:20:25;;;;;;;9.17;3.50;;;;;;;;;;5098779;28;20799;-64
2023/09/29 11:23:02;;;;;;;7.15;3.35;;;;;;;;;;5099976;28;20409;-65
2023/09/29 11:25:29;;;;;;;6.60;3.67;;;;;;;;;;5097910;28;20430;-65
2023/09/29 11:27:56;;;;;;;8.70;3.75;;;;;;;;;;5095001;28;20414;-64
2023/09/29 11:30:24;;;;;;;9.25;3.72;;;;;;;;;;5098701;28;20483;-65
2023/09/29 11:32:52;;;;;;;9.27;3.58;;;;;;;;;;5099281;28;20417;-64
2023/09/29 11:35:19;;;;;;;9.57;3.97;;;;;;;;;;5103121;28;20428;-64
2023/09/29 11:37:46;;;;;;;10.82;3.85;;;;;;;;;;5103732;28;20831;-64
2023/09/29 11:40:16;;;;;;;7.78;4.00;;;;;;;;;;5102264;28;20418;-64
2023/09/29 11:42:45;;;;;;;9.27;3.80;;;;;;;;;;5104157;28;20443;-64
2023/09/29 11:45:12;;;;;;;7.82;3.75;;;;;;;;;;5104785;28;20400;-65
2023/09/29 11:47:40;;;;;;;8.93;3.60;;;;;;;;;;5102914;28;20892;-66
2023/09/29 11:50:08;;;;;;;10.97;3.80;;;;;;;;;;5102854;28;20410;-66
2023/09/29 11:52:35;;;;;;;9.63;3.88;;;;;;;;;;5102448;28;20415;-64
2023/09/29 11:55:03;;;;;;;8.05;4.00;;;;;;;;;;5103534;28;20499;-64
2023/09/29 11:57:32;;;;;;;8.30;3.92;;;;;;;;;;5095311;28;20488;-65
2023/09/29 11:59:59;;;;;;;8.90;3.80;;;;;;;;;;5099275;28;20405;-64
2023/09/29 12:02:26;;;;;;;9.20;3.80;;;;;;;;;;5097863;27;20411;-64
2023/09/29 12:04:53;;;;;;;7.57;3.80;;;;;;;;;;5096856;28;20620;-65
2023/09/29 12:07:20;;;;;;;9.23;4.07;;;;;;;;;;5094988;28;20424;-64
2023/09/29 12:09:47;;;;;;;9.07;4.28;;;;;;;;;;5101417;27;21135;-64
2023/09/29 12:12:14;;;;;;;8.20;3.97;;;;;;;;;;5099175;27;20409;-64
2023/09/29 12:14:42;;;;;;;8.27;3.95;;;;;;;;;;5096484;28;20952;-63
2023/09/29 12:17:09;;;;;;;11.98;4.28;;;;;;;;;;5098329;28;20410;-63
2023/09/29 12:19:37;;;;;;;9.50;4.03;;;;;;;;;;5096639;28;20444;-65
2023/09/29 12:22:04;;;;;;;6.80;3.60;;;;;;;;;;5097328;28;20443;-65
2023/09/29 12:24:31;;;;;;;8.93;4.05;;;;;;;;;;5100743;28;20410;-65
2023/09/29 12:26:58;;;;;;;11.57;4.45;;;;;;;;;;5105085;28;20465;-65
2023/09/29 12:29:25;;;;;;;10.80;4.60;;;;;;;;;;5107053;28;20809;-65
2023/09/29 12:31:54;;;;;;;10.82;4.78;;;;;;;;;;5107532;28;20404;-66
2023/09/29 12:34:21;;;;;;;10.70;4.63;;;;;;;;;;5105909;28;21244;-67
2023/09/29 12:36:48;;;;;;;11.45;4.40;;;;;;;;;;5108335;28;20489;-66
2023/09/29 12:39:15;;;;;;;11.20;4.75;;;;;;;;;;5105040;28;20406;-66
2023/09/29 12:41:42;;;;;;;10.27;4.80;;;;;;;;;;5107191;28;20778;-67
2023/09/29 12:46:45;;;;;;;10.63;4.43;;;;;;;;;;5179473;22;20523;-67
2023/09/29 12:49:13;;;;;;;9.30;4.47;;;;;;;;;;5054434;28;20421;-67
2023/09/29 12:51:40;;;;;;;10.65;4.72;;;;;;;;;;5057409;28;20414;-66
2023/09/29 12:54:07;;;;;;;10.63;4.82;;;;;;;;;;5054404;28;20413;-64
2023/09/29 12:56:35;;;;;;;11.45;5.25;;;;;;;;;;5059523;28;20493;-64
2023/09/29 12:59:02;;;;;;;10.52;5.00;;;;;;;;;;5053673;28;20418;-65
2023/09/29 13:01:29;;;;;;;11.07;5.13;;;;;;;;;;5052323;28;20820;-65
2023/09/29 13:03:57;;;;;;;12.07;5.05;;;;;;;;;;5053492;28;20448;-65
2023/09/29 13:06:25;;;;;;;10.88;5.15;;;;;;;;;;5059613;28;20824;-67
2023/09/29 13:08:53;;;;;;;11.75;4.97;;;;;;;;;;5051834;28;20788;-66
2023/09/29 13:11:21;;;;;;;11.73;5.05;;;;;;;;;;5050809;28;20428;-65
2023/09/29 13:13:48;;;;;;;9.83;5.03;;;;;;;;;;5051796;28;20457;-65
2023/09/29 13:16:16;;;;;;;11.70;4.70;;;;;;;;;;5052669;28;20799;-67
2023/09/29 13:18:43;;;;;;;10.13;4.63;;;;;;;;;;5046554;28;20422;-66
2023/09/29 13:21:10;;;;;;;9.57;4.57;;;;;;;;;;5046203;28;20924;-66
2023/09/29 13:23:38;;;;;;;9.98;4.40;;;;;;;;;;5055314;28;20415;-66
2023/09/29 13:26:05;;;;;;;13.00;4.47;;;;;;;;;;5047731;28;20417;-64
2023/09/29 13:28:32;;;;;;;8.35;4.18;;;;;;;;;;5051806;28;20756;-67
2023/09/29 13:31:01;;;;;;;11.97;4.87;;;;;;;;;;5051959;28;20455;-67
2023/09/29 13:33:30;;;;;;;8.95;4.38;;;;;;;;;;5051596;28;20880;-66
2023/09/29 13:35:57;;;;;;;9.07;4.00;;;;;;;;;;5047502;28;20430;-65
2023/09/29 13:38:24;;;;;;;8.27;4.25;;;;;;;;;;5052266;28;20413;-66
2023/09/29 13:40:53;;;;;;;11.52;4.50;;;;;;;;;;5051142;28;20417;-68
2023/09/29 13:43:20;;;;;;;9.77;4.13;;;;;;;;;;5051753;28;20442;-65
2023/09/29 13:45:47;;;;;;;8.77;3.60;;;;;;;;;;5050835;28;20937;-64
2023/09/29 13:48:14;;;;;;;9.43;3.90;;;;;;;;;;5051598;28;20409;-63
2023/09/29 13:50:41;;;;;;;9.38;3.63;;;;;;;;;;5050875;28;20410;-62
2023/09/29 13:53:08;;;;;;;7.80;3.42;;;;;;;;;;5048258;28;20417;-63
2023/09/29 13:55:35;;;;;;;7.87;3.33;;;;;;;;;;5052452;28;20441;-63
2023/09/29 13:58:05;;;;;;;9.85;3.10;;;;;;;;;;5049932;28;20413;-64
2023/09/29 14:00:32;;;;;;;6.03;3.00;;;;;;;;;;5050651;28;20418;-63
2023/09/29 14:02:59;;;;;;;6.20;2.90;;;;;;;;;;5050654;28;20868;-64
2023/09/29 14:05:27;;;;;;;8.38;3.30;;;;;;;;;;5050740;28;20471;-64
2023/09/29 14:07:55;;;;;;;6.00;2.88;;;;;;;;;;5050564;28;20417;-62
2023/09/29 14:10:22;;;;;;;7.68;2.97;;;;;;;;;;5047122;28;20421;-63
2023/09/29 14:12:49;;;;;;;7.30;2.25;;;;;;;;;;5050551;28;20466;-65
2023/09/29 14:15:17;;;;;;;6.05;2.38;;;;;;;;;;5049970;28;20896;-63
2023/09/29 14:17:45;;;;;;;5.80;2.60;;;;;;;;;;5052768;28;20408;-63
2023/09/29 14:20:13;;;;;;;4.72;2.30;;;;;;;;;;5056812;28;20891;-63
2023/09/29 14:22:40;;;;;;;4.25;2.33;;;;;;;;;;5049838;28;20943;-63
2023/09/29 14:25:08;;;;;;;3.78;2.20;;;;;;;;;;5052254;28;20504;-64
2023/09/29 14:27:35;;;;;;;4.97;2.47;;;;;;;;;;5050366;28;20416;-64
2023/09/29 14:30:02;;;;;;;4.65;2.30;;;;;;;;;;5049566;28;20498;-64
2023/09/29 14:32:30;;;;;;;5.28;2.38;;;;;;;;;;5050105;28;20788;-65
2023/09/29 14:34:57;;;;;;;4.03;2.22;;;;;;;;;;5049909;28;20409;-62
2023/09/29 14:37:24;;;;;;;5.32;2.70;;;;;;;;;;5050352;28;20850;-62
2023/09/29 14:39:53;;;;;;;5.65;2.42;;;;;;;;;;5050069;28;20827;-64
2023/09/29 14:42:20;;;;;;;5.00;2.60;;;;;;;;;;5050299;28;20491;-63
2023/09/29 14:44:47;;;;;;;6.85;2.80;;;;;;;;;;5046208;28;20451;-63
2023/09/29 14:47:14;;;;;;;4.85;2.67;;;;;;;;;;5050095;28;20463;-64
2023/09/29 14:49:42;;;;;;;7.72;2.83;;;;;;;;;;5049751;28;20417;-63